sensor_id;sensor_type;location;lat;lon;timestamp;P1;durP1;ratioP1;P2;durP2;ratioP2
1831;SDS011;1680;48.106;11.708;2024-02-21T00:00:01;3.80;;;2.90;;
1831;SDS011;1680;48.106;11.708;2024-02-21T00:02:28;3.20;;;2.50;;
1831;SDS011;1680;48.106;11.708;2024-02-21T00:04:55;4.23;;;2.93;;
1831;SDS011;1680;48.106;11.708;2024-02-21T00:07:22;3.43;;;3.07;;
1831;SDS011;1680;48.106;11.708;2024-02-21T00:09:50;2.40;;;2.20;;
1831;SDS011;1680;48.106;11.708;2024-02-21T00:12:17;3.70;;;2.87;;
1831;SDS011;1680;48.106;11.708;2024-02-21T00:14:44;2.88;;;2.47;;
1831;SDS011;1680;48.106;11.708;2024-02-21T00:17:11;3.73;;;2.60;;
1831;SDS011;1680;48.106;11.708;2024-02-21T00:19:40;5.30;;;2.87;;
1831;SDS011;1680;48.106;11.708;2024-02-21T00:22:07;4.47;;;3.10;;
1831;SDS011;1680;48.106;11.708;2024-02-21T00:24:34;4.37;;;2.70;;
1831;SDS011;1680;48.106;11.708;2024-02-21T00:27:02;3.63;;;2.80;;
1831;SDS011;1680;48.106;11.708;2024-02-21T00:29:29;4.93;;;3.50;;
1831;SDS011;1680;48.106;11.708;2024-02-21T00:31:56;5.40;;;4.13;;
1831;SDS011;1680;48.106;11.708;2024-02-21T00:34:23;4.40;;;3.30;;
1831;SDS011;1680;48.106;11.708;2024-02-21T00:36:50;4.23;;;3.60;;
1831;SDS011;1680;48.106;11.708;2024-02-21T00:39:20;5.33;;;4.03;;
1831;SDS011;1680;48.106;11.708;2024-02-21T00:42:26;5.60;;;3.90;;
1831;SDS011;1680;48.106;11.708;2024-02-21T00:45:04;5.97;;;3.60;;
1831;SDS011;1680;48.106;11.708;2024-02-21T00:48:02;3.50;;;3.10;;
1831;SDS011;1680;48.106;11.708;2024-02-21T00:50:46;4.40;;;2.90;;
1831;SDS011;1680;48.106;11.708;2024-02-21T00:59:43;2.87;;;2.67;;
1831;SDS011;1680;48.106;11.708;2024-02-21T01:02:49;5.50;;;2.13;;
1831;SDS011;1680;48.106;11.708;2024-02-21T01:06:10;2.30;;;2.10;;
1831;SDS011;1680;48.106;11.708;2024-02-21T01:08:58;2.40;;;2.20;;
1831;SDS011;1680;48.106;11.708;2024-02-21T01:11:46;2.43;;;1.87;;
1831;SDS011;1680;48.106;11.708;2024-02-21T01:14:39;2.13;;;1.93;;
1831;SDS011;1680;48.106;11.708;2024-02-21T01:20:20;2.63;;;2.00;;
1831;SDS011;1680;48.106;11.708;2024-02-21T01:22:53;1.90;;;1.63;;
1831;SDS011;1680;48.106;11.708;2024-02-21T01:28:43;2.70;;;2.10;;
1831;SDS011;1680;48.106;11.708;2024-02-21T01:31:09;1.93;;;1.80;;
1831;SDS011;1680;48.106;11.708;2024-02-21T01:33:38;1.80;;;1.70;;
1831;SDS011;1680;48.106;11.708;2024-02-21T01:36:06;2.00;;;1.73;;
1831;SDS011;1680;48.106;11.708;2024-02-21T01:38:34;2.43;;;1.83;;
1831;SDS011;1680;48.106;11.708;2024-02-21T01:41:02;1.83;;;1.60;;
1831;SDS011;1680;48.106;11.708;2024-02-21T01:43:29;2.10;;;1.80;;
1831;SDS011;1680;48.106;11.708;2024-02-21T01:45:56;2.13;;;1.67;;
1831;SDS011;1680;48.106;11.708;2024-02-21T01:48:23;2.50;;;1.50;;
1831;SDS011;1680;48.106;11.708;2024-02-21T01:50:51;2.93;;;2.00;;
1831;SDS011;1680;48.106;11.708;2024-02-21T01:53:21;2.07;;;1.90;;
1831;SDS011;1680;48.106;11.708;2024-02-21T01:55:49;2.40;;;1.60;;
1831;SDS011;1680;48.106;11.708;2024-02-21T01:58:16;2.73;;;2.00;;
1831;SDS011;1680;48.106;11.708;2024-02-21T02:00:43;3.40;;;2.00;;
1831;SDS011;1680;48.106;11.708;2024-02-21T02:03:12;1.70;;;1.60;;
1831;SDS011;1680;48.106;11.708;2024-02-21T02:05:42;2.07;;;1.60;;
1831;SDS011;1680;48.106;11.708;2024-02-21T02:08:10;2.23;;;1.80;;
1831;SDS011;1680;48.106;11.708;2024-02-21T02:10:38;1.50;;;1.40;;
1831;SDS011;1680;48.106;11.708;2024-02-21T02:13:05;2.20;;;1.67;;
1831;SDS011;1680;48.106;11.708;2024-02-21T02:15:41;3.50;;;2.00;;
1831;SDS011;1680;48.106;11.708;2024-02-21T02:18:09;3.43;;;1.90;;
1831;SDS011;1680;48.106;11.708;2024-02-21T02:20:36;2.70;;;2.03;;
1831;SDS011;1680;48.106;11.708;2024-02-21T02:23:06;2.30;;;1.30;;
1831;SDS011;1680;48.106;11.708;2024-02-21T02:25:35;2.70;;;1.67;;
1831;SDS011;1680;48.106;11.708;2024-02-21T02:28:02;1.90;;;1.80;;
1831;SDS011;1680;48.106;11.708;2024-02-21T02:30:31;1.93;;;1.80;;
1831;SDS011;1680;48.106;11.708;2024-02-21T02:32:58;1.60;;;1.50;;
1831;SDS011;1680;48.106;11.708;2024-02-21T02:35:25;1.63;;;1.53;;
1831;SDS011;1680;48.106;11.708;2024-02-21T02:37:52;2.60;;;1.47;;
1831;SDS011;1680;48.106;11.708;2024-02-21T02:40:19;1.80;;;1.47;;
1831;SDS011;1680;48.106;11.708;2024-02-21T02:42:47;1.97;;;1.50;;
1831;SDS011;1680;48.106;11.708;2024-02-21T02:45:14;2.30;;;1.50;;
1831;SDS011;1680;48.106;11.708;2024-02-21T02:47:42;2.00;;;1.40;;
1831;SDS011;1680;48.106;11.708;2024-02-21T02:50:09;3.30;;;1.50;;
1831;SDS011;1680;48.106;11.708;2024-02-21T02:52:36;2.03;;;1.30;;
1831;SDS011;1680;48.106;11.708;2024-02-21T02:55:03;1.17;;;1.00;;
1831;SDS011;1680;48.106;11.708;2024-02-21T02:57:31;4.43;;;1.60;;
1831;SDS011;1680;48.106;11.708;2024-02-21T03:00:00;1.47;;;1.37;;
1831;SDS011;1680;48.106;11.708;2024-02-21T03:02:27;1.37;;;1.20;;
1831;SDS011;1680;48.106;11.708;2024-02-21T03:04:53;1.57;;;1.30;;
1831;SDS011;1680;48.106;11.708;2024-02-21T03:07:20;1.30;;;1.20;;
1831;SDS011;1680;48.106;11.708;2024-02-21T03:09:47;1.57;;;1.30;;
1831;SDS011;1680;48.106;11.708;2024-02-21T03:12:15;1.13;;;1.00;;
1831;SDS011;1680;48.106;11.708;2024-02-21T03:14:49;2.13;;;1.30;;
1831;SDS011;1680;48.106;11.708;2024-02-21T03:17:17;1.83;;;1.40;;
1831;SDS011;1680;48.106;11.708;2024-02-21T03:19:44;1.30;;;1.20;;
1831;SDS011;1680;48.106;11.708;2024-02-21T03:22:11;2.70;;;1.40;;
1831;SDS011;1680;48.106;11.708;2024-02-21T03:24:38;1.10;;;1.00;;
1831;SDS011;1680;48.106;11.708;2024-02-21T03:27:05;1.70;;;1.30;;
1831;SDS011;1680;48.106;11.708;2024-02-21T03:29:32;2.03;;;1.53;;
1831;SDS011;1680;48.106;11.708;2024-02-21T03:31:58;2.80;;;1.40;;
1831;SDS011;1680;48.106;11.708;2024-02-21T03:34:27;3.70;;;1.43;;
1831;SDS011;1680;48.106;11.708;2024-02-21T03:36:54;2.10;;;1.50;;
1831;SDS011;1680;48.106;11.708;2024-02-21T03:39:21;1.57;;;1.30;;
1831;SDS011;1680;48.106;11.708;2024-02-21T03:41:48;2.20;;;1.40;;
1831;SDS011;1680;48.106;11.708;2024-02-21T03:44:16;1.60;;;1.50;;
1831;SDS011;1680;48.106;11.708;2024-02-21T03:46:43;2.13;;;1.60;;
1831;SDS011;1680;48.106;11.708;2024-02-21T03:49:10;1.50;;;1.40;;
1831;SDS011;1680;48.106;11.708;2024-02-21T03:51:38;1.60;;;1.20;;
1831;SDS011;1680;48.106;11.708;2024-02-21T03:54:05;1.43;;;1.33;;
1831;SDS011;1680;48.106;11.708;2024-02-21T03:56:32;2.70;;;1.23;;
1831;SDS011;1680;48.106;11.708;2024-02-21T03:58:59;1.87;;;0.87;;
1831;SDS011;1680;48.106;11.708;2024-02-21T04:01:26;1.97;;;1.70;;
1831;SDS011;1680;48.106;11.708;2024-02-21T04:03:53;1.30;;;0.87;;
1831;SDS011;1680;48.106;11.708;2024-02-21T04:06:20;1.07;;;1.00;;
1831;SDS011;1680;48.106;11.708;2024-02-21T04:08:49;1.67;;;1.57;;
1831;SDS011;1680;48.106;11.708;2024-02-21T04:11:16;1.23;;;1.13;;
1831;SDS011;1680;48.106;11.708;2024-02-21T04:13:43;1.37;;;1.20;;
1831;SDS011;1680;48.106;11.708;2024-02-21T04:16:13;1.20;;;1.10;;
1831;SDS011;1680;48.106;11.708;2024-02-21T04:18:40;1.57;;;1.20;;
1831;SDS011;1680;48.106;11.708;2024-02-21T04:21:08;1.83;;;1.20;;
1831;SDS011;1680;48.106;11.708;2024-02-21T04:23:34;2.33;;;1.40;;
1831;SDS011;1680;48.106;11.708;2024-02-21T04:26:04;1.40;;;1.30;;
1831;SDS011;1680;48.106;11.708;2024-02-21T04:28:31;1.47;;;1.10;;
1831;SDS011;1680;48.106;11.708;2024-02-21T04:30:57;1.13;;;1.00;;
1831;SDS011;1680;48.106;11.708;2024-02-21T04:33:24;0.90;;;0.90;;
1831;SDS011;1680;48.106;11.708;2024-02-21T04:35:52;1.10;;;0.90;;
1831;SDS011;1680;48.106;11.708;2024-02-21T04:38:20;1.90;;;1.23;;
1831;SDS011;1680;48.106;11.708;2024-02-21T04:40:47;0.97;;;0.97;;
1831;SDS011;1680;48.106;11.708;2024-02-21T04:43:16;2.53;;;1.00;;
1831;SDS011;1680;48.106;11.708;2024-02-21T04:45:43;1.47;;;1.10;;
1831;SDS011;1680;48.106;11.708;2024-02-21T04:48:10;1.33;;;1.23;;
1831;SDS011;1680;48.106;11.708;2024-02-21T04:50:37;1.23;;;1.13;;
1831;SDS011;1680;48.106;11.708;2024-02-21T04:53:03;1.23;;;1.13;;
1831;SDS011;1680;48.106;11.708;2024-02-21T04:55:30;1.23;;;1.13;;
1831;SDS011;1680;48.106;11.708;2024-02-21T04:57:57;1.20;;;1.20;;
1831;SDS011;1680;48.106;11.708;2024-02-21T05:00:27;1.73;;;1.30;;
1831;SDS011;1680;48.106;11.708;2024-02-21T05:02:54;1.53;;;1.37;;
1831;SDS011;1680;48.106;11.708;2024-02-21T05:05:20;1.23;;;1.13;;
1831;SDS011;1680;48.106;11.708;2024-02-21T05:07:47;1.27;;;1.03;;
1831;SDS011;1680;48.106;11.708;2024-02-21T05:10:14;1.07;;;0.90;;
1831;SDS011;1680;48.106;11.708;2024-02-21T05:12:42;1.87;;;1.23;;
1831;SDS011;1680;48.106;11.708;2024-02-21T05:15:09;1.50;;;1.40;;
1831;SDS011;1680;48.106;11.708;2024-02-21T05:17:38;1.20;;;1.00;;
1831;SDS011;1680;48.106;11.708;2024-02-21T05:20:06;2.17;;;1.30;;
1831;SDS011;1680;48.106;11.708;2024-02-21T05:22:33;1.20;;;1.10;;
1831;SDS011;1680;48.106;11.708;2024-02-21T05:25:00;1.30;;;1.20;;
1831;SDS011;1680;48.106;11.708;2024-02-21T05:27:27;1.50;;;1.40;;
1831;SDS011;1680;48.106;11.708;2024-02-21T05:29:54;3.03;;;1.30;;
1831;SDS011;1680;48.106;11.708;2024-02-21T05:32:20;1.30;;;1.20;;
1831;SDS011;1680;48.106;11.708;2024-02-21T05:34:49;1.43;;;1.00;;
1831;SDS011;1680;48.106;11.708;2024-02-21T05:37:16;1.97;;;1.20;;
1831;SDS011;1680;48.106;11.708;2024-02-21T05:39:43;1.30;;;1.10;;
1831;SDS011;1680;48.106;11.708;2024-02-21T05:42:10;1.60;;;1.00;;
1831;SDS011;1680;48.106;11.708;2024-02-21T05:44:37;1.27;;;1.17;;
1831;SDS011;1680;48.106;11.708;2024-02-21T05:47:04;2.50;;;1.10;;
1831;SDS011;1680;48.106;11.708;2024-02-21T05:49:35;1.20;;;1.10;;
1831;SDS011;1680;48.106;11.708;2024-02-21T05:52:03;1.13;;;1.00;;
1831;SDS011;1680;48.106;11.708;2024-02-21T05:54:31;1.77;;;1.17;;
1831;SDS011;1680;48.106;11.708;2024-02-21T05:56:57;1.73;;;1.10;;
1831;SDS011;1680;48.106;11.708;2024-02-21T05:59:24;1.07;;;1.03;;
1831;SDS011;1680;48.106;11.708;2024-02-21T06:01:55;0.80;;;0.80;;
1831;SDS011;1680;48.106;11.708;2024-02-21T06:04:22;2.30;;;1.20;;
1831;SDS011;1680;48.106;11.708;2024-02-21T06:06:49;1.77;;;1.10;;
1831;SDS011;1680;48.106;11.708;2024-02-21T06:09:18;1.00;;;0.80;;
1831;SDS011;1680;48.106;11.708;2024-02-21T06:11:44;1.23;;;1.17;;
1831;SDS011;1680;48.106;11.708;2024-02-21T06:14:13;1.60;;;0.80;;
1831;SDS011;1680;48.106;11.708;2024-02-21T06:16:40;2.03;;;1.10;;
1831;SDS011;1680;48.106;11.708;2024-02-21T06:19:07;1.63;;;1.10;;
1831;SDS011;1680;48.106;11.708;2024-02-21T06:21:34;2.33;;;1.00;;
1831;SDS011;1680;48.106;11.708;2024-02-21T06:24:01;3.20;;;1.13;;
1831;SDS011;1680;48.106;11.708;2024-02-21T06:26:29;1.10;;;1.00;;
1831;SDS011;1680;48.106;11.708;2024-02-21T06:28:56;1.40;;;0.97;;
1831;SDS011;1680;48.106;11.708;2024-02-21T06:31:24;2.23;;;1.13;;
1831;SDS011;1680;48.106;11.708;2024-02-21T06:33:51;2.57;;;1.20;;
1831;SDS011;1680;48.106;11.708;2024-02-21T06:36:18;1.65;;;1.40;;
1831;SDS011;1680;48.106;11.708;2024-02-21T06:38:45;1.57;;;1.13;;
1831;SDS011;1680;48.106;11.708;2024-02-21T06:41:14;3.08;;;1.67;;
1831;SDS011;1680;48.106;11.708;2024-02-21T06:43:43;2.80;;;1.60;;
1831;SDS011;1680;48.106;11.708;2024-02-21T06:46:10;3.55;;;1.33;;
1831;SDS011;1680;48.106;11.708;2024-02-21T06:48:37;3.27;;;1.20;;
1831;SDS011;1680;48.106;11.708;2024-02-21T06:51:04;2.35;;;1.40;;
1831;SDS011;1680;48.106;11.708;2024-02-21T06:53:31;3.27;;;1.20;;
1831;SDS011;1680;48.106;11.708;2024-02-21T06:55:58;1.17;;;1.00;;
1831;SDS011;1680;48.106;11.708;2024-02-21T06:58:25;1.63;;;1.40;;
1831;SDS011;1680;48.106;11.708;2024-02-21T07:00:53;1.43;;;1.20;;
1831;SDS011;1680;48.106;11.708;2024-02-21T07:03:20;2.77;;;1.10;;
1831;SDS011;1680;48.106;11.708;2024-02-21T07:05:46;1.27;;;1.10;;
1831;SDS011;1680;48.106;11.708;2024-02-21T07:08:13;1.30;;;1.20;;
1831;SDS011;1680;48.106;11.708;2024-02-21T07:10:40;3.10;;;1.00;;
1831;SDS011;1680;48.106;11.708;2024-02-21T07:13:07;1.63;;;1.20;;
1831;SDS011;1680;48.106;11.708;2024-02-21T07:15:34;3.33;;;1.53;;
1831;SDS011;1680;48.106;11.708;2024-02-21T07:18:04;1.53;;;1.10;;
1831;SDS011;1680;48.106;11.708;2024-02-21T07:20:31;1.40;;;1.30;;
1831;SDS011;1680;48.106;11.708;2024-02-21T07:22:58;1.40;;;1.17;;
1831;SDS011;1680;48.106;11.708;2024-02-21T07:25:25;1.37;;;1.27;;
1831;SDS011;1680;48.106;11.708;2024-02-21T07:27:52;4.73;;;1.27;;
1831;SDS011;1680;48.106;11.708;2024-02-21T07:30:19;1.10;;;0.90;;
1831;SDS011;1680;48.106;11.708;2024-02-21T07:32:48;1.40;;;1.10;;
1831;SDS011;1680;48.106;11.708;2024-02-21T07:35:16;4.73;;;1.20;;
1831;SDS011;1680;48.106;11.708;2024-02-21T07:37:43;1.37;;;1.00;;
1831;SDS011;1680;48.106;11.708;2024-02-21T07:40:12;1.73;;;1.10;;
1831;SDS011;1680;48.106;11.708;2024-02-21T07:42:39;1.90;;;1.10;;
1831;SDS011;1680;48.106;11.708;2024-02-21T07:45:06;2.90;;;1.10;;
1831;SDS011;1680;48.106;11.708;2024-02-21T07:47:33;2.87;;;1.30;;
1831;SDS011;1680;48.106;11.708;2024-02-21T07:50:00;4.20;;;1.47;;
1831;SDS011;1680;48.106;11.708;2024-02-21T07:52:29;1.87;;;1.07;;
1831;SDS011;1680;48.106;11.708;2024-02-21T07:54:56;1.30;;;1.10;;
1831;SDS011;1680;48.106;11.708;2024-02-21T07:57:23;2.20;;;1.20;;
1831;SDS011;1680;48.106;11.708;2024-02-21T07:59:50;1.57;;;1.00;;
1831;SDS011;1680;48.106;11.708;2024-02-21T08:02:17;3.63;;;1.10;;
1831;SDS011;1680;48.106;11.708;2024-02-21T08:04:44;4.20;;;1.13;;
1831;SDS011;1680;48.106;11.708;2024-02-21T08:07:11;2.00;;;1.10;;
1831;SDS011;1680;48.106;11.708;2024-02-21T08:09:40;2.50;;;1.00;;
1831;SDS011;1680;48.106;11.708;2024-02-21T08:12:07;1.57;;;1.00;;
1831;SDS011;1680;48.106;11.708;2024-02-21T08:14:34;3.80;;;1.30;;
1831;SDS011;1680;48.106;11.708;2024-02-21T08:17:01;2.10;;;1.00;;
1831;SDS011;1680;48.106;11.708;2024-02-21T08:19:29;1.20;;;1.10;;
1831;SDS011;1680;48.106;11.708;2024-02-21T08:21:55;1.47;;;1.30;;
1831;SDS011;1680;48.106;11.708;2024-02-21T08:24:24;0.97;;;0.97;;
1831;SDS011;1680;48.106;11.708;2024-02-21T08:26:52;1.10;;;1.00;;
1831;SDS011;1680;48.106;11.708;2024-02-21T08:29:19;0.90;;;0.90;;
1831;SDS011;1680;48.106;11.708;2024-02-21T08:31:46;1.50;;;1.27;;
1831;SDS011;1680;48.106;11.708;2024-02-21T08:34:13;1.50;;;1.00;;
1831;SDS011;1680;48.106;11.708;2024-02-21T08:36:40;1.63;;;1.27;;
1831;SDS011;1680;48.106;11.708;2024-02-21T08:39:07;1.20;;;1.10;;
1831;SDS011;1680;48.106;11.708;2024-02-21T08:41:34;1.37;;;1.10;;
1831;SDS011;1680;48.106;11.708;2024-02-21T08:44:03;1.23;;;1.00;;
1831;SDS011;1680;48.106;11.708;2024-02-21T08:46:30;1.30;;;1.20;;
1831;SDS011;1680;48.106;11.708;2024-02-21T08:48:56;1.27;;;1.20;;
1831;SDS011;1680;48.106;11.708;2024-02-21T08:51:23;1.07;;;1.00;;
1831;SDS011;1680;48.106;11.708;2024-02-21T08:53:51;1.40;;;1.10;;
1831;SDS011;1680;48.106;11.708;2024-02-21T08:56:19;1.10;;;1.00;;
1831;SDS011;1680;48.106;11.708;2024-02-21T08:58:45;1.20;;;1.10;;
1831;SDS011;1680;48.106;11.708;2024-02-21T09:01:14;1.80;;;1.10;;
1831;SDS011;1680;48.106;11.708;2024-02-21T09:03:41;0.90;;;0.90;;
1831;SDS011;1680;48.106;11.708;2024-02-21T09:06:10;1.47;;;0.80;;
1831;SDS011;1680;48.106;11.708;2024-02-21T09:08:38;2.07;;;1.00;;
1831;SDS011;1680;48.106;11.708;2024-02-21T09:11:06;0.80;;;0.80;;
1831;SDS011;1680;48.106;11.708;2024-02-21T09:13:33;1.10;;;0.77;;
1831;SDS011;1680;48.106;11.708;2024-02-21T09:16:00;2.40;;;1.10;;
1831;SDS011;1680;48.106;11.708;2024-02-21T09:18:28;1.20;;;1.00;;
1831;SDS011;1680;48.106;11.708;2024-02-21T09:20:55;1.80;;;1.00;;
1831;SDS011;1680;48.106;11.708;2024-02-21T09:23:23;1.87;;;1.00;;
1831;SDS011;1680;48.106;11.708;2024-02-21T09:25:50;1.53;;;1.10;;
1831;SDS011;1680;48.106;11.708;2024-02-21T09:28:17;3.07;;;1.00;;
1831;SDS011;1680;48.106;11.708;2024-02-21T09:30:44;1.30;;;1.10;;
1831;SDS011;1680;48.106;11.708;2024-02-21T09:33:12;0.73;;;0.73;;
1831;SDS011;1680;48.106;11.708;2024-02-21T09:35:41;1.10;;;1.00;;
1831;SDS011;1680;48.106;11.708;2024-02-21T09:38:08;1.33;;;0.87;;
1831;SDS011;1680;48.106;11.708;2024-02-21T09:40:35;1.37;;;0.90;;
1831;SDS011;1680;48.106;11.708;2024-02-21T09:43:04;0.83;;;0.83;;
1831;SDS011;1680;48.106;11.708;2024-02-21T09:45:32;0.80;;;0.80;;
1831;SDS011;1680;48.106;11.708;2024-02-21T09:48:19;1.83;;;1.23;;
1831;SDS011;1680;48.106;11.708;2024-02-21T09:50:53;1.07;;;0.97;;
1831;SDS011;1680;48.106;11.708;2024-02-21T09:53:21;1.13;;;0.70;;
1831;SDS011;1680;48.106;11.708;2024-02-21T09:55:50;1.10;;;0.90;;
1831;SDS011;1680;48.106;11.708;2024-02-21T09:58:18;1.23;;;0.90;;
1831;SDS011;1680;48.106;11.708;2024-02-21T10:00:45;1.97;;;0.87;;
1831;SDS011;1680;48.106;11.708;2024-02-21T10:03:12;1.33;;;0.90;;
1831;SDS011;1680;48.106;11.708;2024-02-21T10:05:45;0.93;;;0.90;;
1831;SDS011;1680;48.106;11.708;2024-02-21T10:08:15;3.13;;;1.00;;
1831;SDS011;1680;48.106;11.708;2024-02-21T10:10:42;1.50;;;0.93;;
1831;SDS011;1680;48.106;11.708;2024-02-21T10:13:09;1.53;;;0.83;;
1831;SDS011;1680;48.106;11.708;2024-02-21T10:15:37;1.10;;;1.00;;
1831;SDS011;1680;48.106;11.708;2024-02-21T10:18:04;1.00;;;1.00;;
1831;SDS011;1680;48.106;11.708;2024-02-21T10:20:32;1.30;;;1.13;;
1831;SDS011;1680;48.106;11.708;2024-02-21T10:23:02;1.20;;;0.70;;
1831;SDS011;1680;48.106;11.708;2024-02-21T10:25:34;1.40;;;0.70;;
1831;SDS011;1680;48.106;11.708;2024-02-21T10:28:03;0.80;;;0.80;;
1831;SDS011;1680;48.106;11.708;2024-02-21T10:30:30;1.77;;;0.80;;
1831;SDS011;1680;48.106;11.708;2024-02-21T10:32:57;1.10;;;0.80;;
1831;SDS011;1680;48.106;11.708;2024-02-21T10:35:27;1.27;;;0.80;;
1831;SDS011;1680;48.106;11.708;2024-02-21T10:37:55;1.17;;;0.87;;
1831;SDS011;1680;48.106;11.708;2024-02-21T10:40:23;0.80;;;0.80;;
1831;SDS011;1680;48.106;11.708;2024-02-21T10:42:52;2.40;;;1.07;;
1831;SDS011;1680;48.106;11.708;2024-02-21T10:45:20;0.90;;;0.80;;
1831;SDS011;1680;48.106;11.708;2024-02-21T10:47:48;0.97;;;0.90;;
1831;SDS011;1680;48.106;11.708;2024-02-21T10:50:18;0.90;;;0.87;;
1831;SDS011;1680;48.106;11.708;2024-02-21T10:52:47;0.93;;;0.83;;
1831;SDS011;1680;48.106;11.708;2024-02-21T10:55:16;0.70;;;0.60;;
1831;SDS011;1680;48.106;11.708;2024-02-21T10:57:48;0.63;;;0.63;;
1831;SDS011;1680;48.106;11.708;2024-02-21T11:00:17;1.00;;;0.90;;
1831;SDS011;1680;48.106;11.708;2024-02-21T11:02:45;0.80;;;0.80;;
1831;SDS011;1680;48.106;11.708;2024-02-21T11:05:12;0.87;;;0.87;;
1831;SDS011;1680;48.106;11.708;2024-02-21T11:07:40;1.40;;;1.23;;
1831;SDS011;1680;48.106;11.708;2024-02-21T11:10:20;1.20;;;1.10;;
1831;SDS011;1680;48.106;11.708;2024-02-21T11:12:47;2.10;;;1.13;;
1831;SDS011;1680;48.106;11.708;2024-02-21T11:15:14;0.93;;;0.83;;
1831;SDS011;1680;48.106;11.708;2024-02-21T11:17:43;0.73;;;0.73;;
1831;SDS011;1680;48.106;11.708;2024-02-21T11:20:21;0.87;;;0.87;;
1831;SDS011;1680;48.106;11.708;2024-02-21T11:22:58;0.83;;;0.83;;
1831;SDS011;1680;48.106;11.708;2024-02-21T11:25:26;0.80;;;0.80;;
1831;SDS011;1680;48.106;11.708;2024-02-21T11:27:58;0.73;;;0.73;;
1831;SDS011;1680;48.106;11.708;2024-02-21T11:30:26;1.47;;;0.80;;
1831;SDS011;1680;48.106;11.708;2024-02-21T11:32:59;1.10;;;1.00;;
1831;SDS011;1680;48.106;11.708;2024-02-21T11:35:30;0.97;;;0.90;;
1831;SDS011;1680;48.106;11.708;2024-02-21T11:37:57;1.77;;;0.70;;
1831;SDS011;1680;48.106;11.708;2024-02-21T11:40:34;1.53;;;0.90;;
1831;SDS011;1680;48.106;11.708;2024-02-21T11:43:01;1.40;;;1.30;;
1831;SDS011;1680;48.106;11.708;2024-02-21T11:45:28;1.90;;;0.70;;
1831;SDS011;1680;48.106;11.708;2024-02-21T11:47:57;2.10;;;0.90;;
1831;SDS011;1680;48.106;11.708;2024-02-21T11:50:26;1.97;;;1.20;;
1831;SDS011;1680;48.106;11.708;2024-02-21T11:52:54;1.00;;;0.90;;
1831;SDS011;1680;48.106;11.708;2024-02-21T11:55:21;1.70;;;1.27;;
1831;SDS011;1680;48.106;11.708;2024-02-21T11:57:48;1.30;;;1.20;;
1831;SDS011;1680;48.106;11.708;2024-02-21T12:00:16;1.00;;;0.80;;
1831;SDS011;1680;48.106;11.708;2024-02-21T12:02:45;0.80;;;0.80;;
1831;SDS011;1680;48.106;11.708;2024-02-21T12:05:12;1.00;;;0.90;;
1831;SDS011;1680;48.106;11.708;2024-02-21T12:07:40;0.93;;;0.83;;
1831;SDS011;1680;48.106;11.708;2024-02-21T12:10:08;1.00;;;0.90;;
1831;SDS011;1680;48.106;11.708;2024-02-21T12:12:36;1.10;;;1.00;;
1831;SDS011;1680;48.106;11.708;2024-02-21T12:15:04;1.20;;;1.10;;
1831;SDS011;1680;48.106;11.708;2024-02-21T12:17:32;1.73;;;0.93;;
1831;SDS011;1680;48.106;11.708;2024-02-21T12:20:00;0.90;;;0.90;;
1831;SDS011;1680;48.106;11.708;2024-02-21T12:22:31;1.13;;;1.00;;
1831;SDS011;1680;48.106;11.708;2024-02-21T12:24:59;5.20;;;3.73;;
1831;SDS011;1680;48.106;11.708;2024-02-21T12:27:29;1.50;;;1.40;;
1831;SDS011;1680;48.106;11.708;2024-02-21T12:29:56;0.80;;;0.80;;
1831;SDS011;1680;48.106;11.708;2024-02-21T12:32:23;0.70;;;0.70;;
1831;SDS011;1680;48.106;11.708;2024-02-21T12:34:50;0.80;;;0.80;;
1831;SDS011;1680;48.106;11.708;2024-02-21T12:37:17;0.70;;;0.70;;
1831;SDS011;1680;48.106;11.708;2024-02-21T12:39:44;0.90;;;0.80;;
1831;SDS011;1680;48.106;11.708;2024-02-21T12:42:13;1.70;;;0.80;;
1831;SDS011;1680;48.106;11.708;2024-02-21T12:44:40;1.10;;;1.00;;
1831;SDS011;1680;48.106;11.708;2024-02-21T12:47:07;1.30;;;1.03;;
1831;SDS011;1680;48.106;11.708;2024-02-21T12:49:34;1.23;;;0.90;;
1831;SDS011;1680;48.106;11.708;2024-02-21T12:52:01;1.30;;;1.20;;
1831;SDS011;1680;48.106;11.708;2024-02-21T12:54:28;1.33;;;0.90;;
1831;SDS011;1680;48.106;11.708;2024-02-21T12:56:56;1.00;;;1.00;;
1831;SDS011;1680;48.106;11.708;2024-02-21T12:59:24;0.90;;;0.77;;
1831;SDS011;1680;48.106;11.708;2024-02-21T13:01:53;0.73;;;0.73;;
1831;SDS011;1680;48.106;11.708;2024-02-21T13:04:20;1.37;;;0.90;;
1831;SDS011;1680;48.106;11.708;2024-02-21T13:06:48;0.80;;;0.80;;
1831;SDS011;1680;48.106;11.708;2024-02-21T13:09:15;0.87;;;0.87;;
1831;SDS011;1680;48.106;11.708;2024-02-21T13:11:42;1.43;;;0.80;;
1831;SDS011;1680;48.106;11.708;2024-02-21T13:14:10;0.70;;;0.70;;
1831;SDS011;1680;48.106;11.708;2024-02-21T13:16:38;0.80;;;0.80;;
1831;SDS011;1680;48.106;11.708;2024-02-21T13:19:05;1.07;;;0.97;;
1831;SDS011;1680;48.106;11.708;2024-02-21T13:21:32;1.20;;;1.10;;
1831;SDS011;1680;48.106;11.708;2024-02-21T13:23:59;1.40;;;1.30;;
1831;SDS011;1680;48.106;11.708;2024-02-21T13:26:26;0.67;;;0.67;;
1831;SDS011;1680;48.106;11.708;2024-02-21T13:28:53;1.33;;;0.60;;
1831;SDS011;1680;48.106;11.708;2024-02-21T13:31:20;1.03;;;0.80;;
1831;SDS011;1680;48.106;11.708;2024-02-21T13:33:48;1.07;;;0.70;;
1831;SDS011;1680;48.106;11.708;2024-02-21T13:36:15;1.03;;;0.93;;
1831;SDS011;1680;48.106;11.708;2024-02-21T13:38:43;3.33;;;1.70;;
1831;SDS011;1680;48.106;11.708;2024-02-21T13:41:10;2.13;;;1.30;;
1831;SDS011;1680;48.106;11.708;2024-02-21T13:43:37;1.80;;;0.60;;
1831;SDS011;1680;48.106;11.708;2024-02-21T13:46:04;0.70;;;0.70;;
1831;SDS011;1680;48.106;11.708;2024-02-21T13:48:34;1.40;;;0.70;;
1831;SDS011;1680;48.106;11.708;2024-02-21T13:51:03;1.30;;;0.90;;
1831;SDS011;1680;48.106;11.708;2024-02-21T13:53:30;1.87;;;1.03;;
1831;SDS011;1680;48.106;11.708;2024-02-21T13:55:57;1.40;;;1.20;;
1831;SDS011;1680;48.106;11.708;2024-02-21T13:58:25;1.10;;;1.00;;
1831;SDS011;1680;48.106;11.708;2024-02-21T14:00:55;1.00;;;0.80;;
1831;SDS011;1680;48.106;11.708;2024-02-21T14:03:22;0.90;;;0.80;;
1831;SDS011;1680;48.106;11.708;2024-02-21T14:05:50;0.83;;;0.83;;
1831;SDS011;1680;48.106;11.708;2024-02-21T14:08:19;1.43;;;1.00;;
1831;SDS011;1680;48.106;11.708;2024-02-21T14:10:46;0.87;;;0.87;;
1831;SDS011;1680;48.106;11.708;2024-02-21T14:13:13;1.13;;;0.80;;
1831;SDS011;1680;48.106;11.708;2024-02-21T14:15:41;1.10;;;1.00;;
1831;SDS011;1680;48.106;11.708;2024-02-21T14:18:10;1.07;;;0.97;;
1831;SDS011;1680;48.106;11.708;2024-02-21T14:20:38;1.30;;;0.90;;
1831;SDS011;1680;48.106;11.708;2024-02-21T14:23:05;1.10;;;1.00;;
1831;SDS011;1680;48.106;11.708;2024-02-21T14:25:34;3.33;;;0.80;;
1831;SDS011;1680;48.106;11.708;2024-02-21T14:28:01;0.83;;;0.83;;
1831;SDS011;1680;48.106;11.708;2024-02-21T14:30:28;1.30;;;1.10;;
1831;SDS011;1680;48.106;11.708;2024-02-21T14:32:54;1.73;;;1.00;;
1831;SDS011;1680;48.106;11.708;2024-02-21T14:35:21;0.93;;;0.80;;
1831;SDS011;1680;48.106;11.708;2024-02-21T14:37:48;1.47;;;1.30;;
1831;SDS011;1680;48.106;11.708;2024-02-21T14:40:15;1.87;;;1.30;;
1831;SDS011;1680;48.106;11.708;2024-02-21T14:42:45;2.53;;;2.10;;
1831;SDS011;1680;48.106;11.708;2024-02-21T14:45:12;2.17;;;1.80;;
1831;SDS011;1680;48.106;11.708;2024-02-21T14:47:39;2.30;;;1.30;;
1831;SDS011;1680;48.106;11.708;2024-02-21T14:50:08;1.17;;;1.07;;
1831;SDS011;1680;48.106;11.708;2024-02-21T14:52:38;1.30;;;1.00;;
1831;SDS011;1680;48.106;11.708;2024-02-21T14:55:05;1.30;;;1.20;;
1831;SDS011;1680;48.106;11.708;2024-02-21T14:57:32;2.10;;;1.20;;
1831;SDS011;1680;48.106;11.708;2024-02-21T15:00:02;1.70;;;1.50;;
1831;SDS011;1680;48.106;11.708;2024-02-21T15:02:33;1.60;;;1.37;;
1831;SDS011;1680;48.106;11.708;2024-02-21T15:05:00;1.40;;;1.30;;
1831;SDS011;1680;48.106;11.708;2024-02-21T15:07:28;1.20;;;1.10;;
1831;SDS011;1680;48.106;11.708;2024-02-21T15:09:55;2.33;;;1.40;;
1831;SDS011;1680;48.106;11.708;2024-02-21T15:12:23;3.47;;;1.10;;
1831;SDS011;1680;48.106;11.708;2024-02-21T15:14:50;0.90;;;0.90;;
1831;SDS011;1680;48.106;11.708;2024-02-21T15:17:18;1.20;;;0.80;;
1831;SDS011;1680;48.106;11.708;2024-02-21T15:19:45;1.20;;;0.80;;